THY189 EGPH-LTFM
Flight info
| Callsign | THY189 |
|---|---|
| Flight time | 2h 2m |
| Altitude | 41000 |
| Route | EGPH/06 N0483F410 TLA6D TLA Y96 HAVEN DCT OTBUN DCT NATEB DCT GODOS DCT AMGOD DCT SPY DCT TIVUN DCT ESAMA DCT OSBIT DCT BARSU DCT DEXIT DCT ARSIN DCT GITAS DCT MOPUG DCT RASUB DCT BULEN DCT EKSOL DCT BUVAK DCT EMO DCT RIXEN RIXE1B LTFM/17L |
| Aircraft | A359/H-SDE2E3GHIJ3J4J5LM1ORWXY/LB1D1 |
Departure
| Time | 2026-04-24 12:58 |
|---|---|
| Airport | Edinburgh Airport (EGPH) |
Arrival
| Time | 2026-04-24 15:01 |
|---|---|
| Airport | İstanbul Airport (LTFM) |
| Time | Latitude | Longitude | Altitude | Speed | Heading |
|---|---|---|---|---|---|
| 2026-04-24 12:31 | 55.94983 | -3.36253 | 122 ft | 0 kts | 117° |
| 2026-04-24 12:49 | 55.94983 | -3.36255 | 122 ft | 2 kts | 117° |
| 2026-04-24 12:49 | 55.94990 | -3.36282 | 119 ft | 2 kts | 114° |
| 2026-04-24 12:49 | 55.94997 | -3.36309 | 117 ft | 2 kts | 111° |
| 2026-04-24 12:49 | 55.95002 | -3.36337 | 119 ft | 2 kts | 108° |
| 2026-04-24 12:50 | 55.95006 | -3.36366 | 117 ft | 2 kts | 100° |
| 2026-04-24 12:50 | 55.95008 | -3.36395 | 118 ft | 2 kts | 87° |
| 2026-04-24 12:50 | 55.95005 | -3.36424 | 117 ft | 2 kts | 69° |
| 2026-04-24 12:50 | 55.94998 | -3.36450 | 117 ft | 2 kts | 56° |
| 2026-04-24 12:51 | 55.94992 | -3.36464 | 117 ft | 1 kts | 56° |
| 2026-04-24 12:53 | 55.94998 | -3.36447 | 119 ft | 6 kts | 57° |
| 2026-04-24 12:54 | 55.95029 | -3.36385 | 120 ft | 5 kts | 22° |
| 2026-04-24 12:54 | 55.95062 | -3.36399 | 118 ft | 6 kts | 334° |
| 2026-04-24 12:54 | 55.95070 | -3.36462 | 120 ft | 7 kts | 255° |
| 2026-04-24 12:54 | 55.95029 | -3.36590 | 118 ft | 16 kts | 238° |
| 2026-04-24 12:55 | 55.94952 | -3.36810 | 117 ft | 25 kts | 240° |
| 2026-04-24 12:55 | 55.94852 | -3.37113 | 117 ft | 30 kts | 239° |
| 2026-04-24 12:55 | 55.94742 | -3.37440 | 117 ft | 31 kts | 238° |
| 2026-04-24 12:55 | 55.94626 | -3.37778 | 118 ft | 33 kts | 239° |
| 2026-04-24 12:56 | 55.94508 | -3.38130 | 118 ft | 33 kts | 239° |
| 2026-04-24 12:56 | 55.94395 | -3.38462 | 118 ft | 31 kts | 239° |
| 2026-04-24 12:56 | 55.94335 | -3.38642 | 118 ft | 10 kts | 239° |
| 2026-04-24 12:56 | 55.94289 | -3.38779 | 119 ft | 16 kts | 239° |
| 2026-04-24 12:57 | 55.94296 | -3.38878 | 118 ft | 6 kts | 324° |
| 2026-04-24 12:57 | 55.94362 | -3.38945 | 118 ft | 14 kts | 327° |
| 2026-04-24 12:57 | 55.94424 | -3.38937 | 117 ft | 8 kts | 49° |
| 2026-04-24 12:57 | 55.94517 | -3.38668 | 115 ft | 63 kts | 59° |
| 2026-04-24 12:58 | 55.94897 | -3.37553 | 117 ft | 148 kts | 59° |
| 2026-04-24 12:58 | 55.95517 | -3.35747 | 686 ft | 179 kts | 57° |
| 2026-04-24 12:58 | 55.96247 | -3.33860 | 1790 ft | 187 kts | 51° |
| 2026-04-24 12:58 | 55.97221 | -3.32072 | 2135 ft | 218 kts | 40° |
| 2026-04-24 12:59 | 55.98440 | -3.30222 | 2575 ft | 242 kts | 39° |
| 2026-04-24 12:59 | 55.99737 | -3.28223 | 3368 ft | 251 kts | 40° |
| 2026-04-24 12:59 | 56.01061 | -3.26129 | 4168 ft | 258 kts | 40° |
| 2026-04-24 12:59 | 56.02418 | -3.23957 | 4968 ft | 263 kts | 40° |
| 2026-04-24 13:00 | 56.03602 | -3.21426 | 5732 ft | 271 kts | 62° |
| 2026-04-24 13:00 | 56.03968 | -3.18135 | 6561 ft | 275 kts | 93° |
| 2026-04-24 13:00 | 56.03722 | -3.14724 | 7424 ft | 280 kts | 99° |
| 2026-04-24 13:00 | 56.03408 | -3.11227 | 8312 ft | 284 kts | 98° |
| 2026-04-24 13:01 | 56.02930 | -3.07796 | 9173 ft | 289 kts | 114° |
| 2026-04-24 13:01 | 56.01297 | -3.04273 | 10337 ft | 291 kts | 143° |
| 2026-04-24 13:01 | 55.97798 | -3.00048 | 11539 ft | 319 kts | 155° |
| 2026-04-24 13:01 | 55.93657 | -2.96619 | 12661 ft | 347 kts | 154° |
| 2026-04-24 13:02 | 55.89172 | -2.92647 | 14079 ft | 365 kts | 154° |
| 2026-04-24 13:02 | 55.84497 | -2.88691 | 15420 ft | 376 kts | 155° |
| 2026-04-24 13:02 | 55.79647 | -2.84725 | 16814 ft | 386 kts | 155° |
| 2026-04-24 13:02 | 55.74731 | -2.80740 | 18186 ft | 395 kts | 155° |
| 2026-04-24 13:03 | 55.69698 | -2.76668 | 19595 ft | 402 kts | 155° |
| 2026-04-24 13:03 | 55.64564 | -2.72513 | 20874 ft | 412 kts | 155° |
| 2026-04-24 13:03 | 55.59267 | -2.68240 | 22195 ft | 421 kts | 155° |
| 2026-04-24 13:03 | 55.53868 | -2.63903 | 23491 ft | 430 kts | 155° |
| 2026-04-24 13:04 | 55.48369 | -2.59496 | 24656 ft | 438 kts | 154° |
| 2026-04-24 13:04 | 55.42797 | -2.55046 | 25701 ft | 447 kts | 154° |
| 2026-04-24 13:04 | 55.37087 | -2.50500 | 26756 ft | 455 kts | 154° |
| 2026-04-24 13:04 | 55.31361 | -2.45521 | 27806 ft | 461 kts | 146° |
| 2026-04-24 13:05 | 55.26591 | -2.38153 | 28813 ft | 463 kts | 127° |
| 2026-04-24 13:05 | 55.23005 | -2.28677 | 29809 ft | 467 kts | 117° |
| 2026-04-24 13:05 | 55.19863 | -2.18656 | 30717 ft | 472 kts | 116° |
| 2026-04-24 13:05 | 55.16653 | -2.08485 | 31472 ft | 478 kts | 117° |
| 2026-04-24 13:06 | 55.13357 | -1.98390 | 32162 ft | 483 kts | 117° |
| 2026-04-24 13:06 | 55.09950 | -1.88120 | 32861 ft | 488 kts | 117° |
| 2026-04-24 13:06 | 55.06601 | -1.78082 | 33856 ft | 485 kts | 117° |
| 2026-04-24 13:06 | 55.03164 | -1.67791 | 34650 ft | 484 kts | 117° |
| 2026-04-24 13:07 | 54.99877 | -1.57455 | 35278 ft | 484 kts | 116° |
| 2026-04-24 13:07 | 54.96696 | -1.47232 | 35905 ft | 485 kts | 116° |
| 2026-04-24 13:07 | 54.93459 | -1.36945 | 36489 ft | 486 kts | 117° |
| 2026-04-24 13:07 | 54.90203 | -1.26708 | 37062 ft | 487 kts | 117° |
| 2026-04-24 13:08 | 54.86891 | -1.16363 | 37615 ft | 487 kts | 118° |
| 2026-04-24 13:08 | 54.83569 | -1.06026 | 38166 ft | 488 kts | 118° |
| 2026-04-24 13:08 | 54.80269 | -0.95799 | 38677 ft | 488 kts | 118° |
| 2026-04-24 13:09 | 54.73607 | -0.75283 | 39491 ft | 489 kts | 119° |
| 2026-04-24 13:09 | 54.70239 | -0.64978 | 39840 ft | 490 kts | 119° |
| 2026-04-24 13:09 | 54.66933 | -0.54904 | 40171 ft | 490 kts | 120° |
| 2026-04-24 13:09 | 54.63540 | -0.44608 | 40529 ft | 490 kts | 120° |
| 2026-04-24 13:10 | 54.60145 | -0.34351 | 40841 ft | 491 kts | 120° |
| 2026-04-24 13:10 | 54.56743 | -0.24114 | 41126 ft | 492 kts | 120° |
| 2026-04-24 13:10 | 54.53379 | -0.14035 | 41371 ft | 493 kts | 120° |
| 2026-04-24 13:10 | 54.49943 | -0.03782 | 41373 ft | 492 kts | 120° |
| 2026-04-24 13:11 | 54.43046 | 0.16665 | 41371 ft | 493 kts | 121° |
| 2026-04-24 13:11 | 54.36230 | 0.36709 | 41371 ft | 493 kts | 121° |
| 2026-04-24 13:12 | 54.29322 | 0.56742 | 41290 ft | 484 kts | 123° |
| 2026-04-24 13:12 | 54.22570 | 0.76360 | 41409 ft | 472 kts | 121° |
| 2026-04-24 13:13 | 54.15966 | 0.95418 | 41323 ft | 463 kts | 118° |
| 2026-04-24 13:13 | 54.09404 | 1.14160 | 41305 ft | 455 kts | 121° |
| 2026-04-24 13:14 | 54.02901 | 1.32324 | 41381 ft | 443 kts | 123° |
| 2026-04-24 13:14 | 53.96528 | 1.49972 | 41327 ft | 434 kts | 123° |
| 2026-04-24 13:15 | 53.90390 | 1.67341 | 41279 ft | 424 kts | 124° |
| 2026-04-24 13:15 | 53.84462 | 1.84183 | 41355 ft | 409 kts | 126° |
| 2026-04-24 13:16 | 53.78523 | 2.00096 | 41280 ft | 395 kts | 126° |
| 2026-04-24 13:16 | 53.72914 | 2.15656 | 41353 ft | 376 kts | 127° |
| 2026-04-24 13:17 | 53.68383 | 2.28147 | 41312 ft | 362 kts | 116° |
| 2026-04-24 13:17 | 53.67220 | 2.32758 | 40638 ft | 383 kts | 117° |
| 2026-04-24 13:17 | 53.64179 | 2.40783 | 39181 ft | 432 kts | 129° |
| 2026-04-24 13:18 | 53.60614 | 2.49173 | 39180 ft | 443 kts | 127° |
| 2026-04-24 13:18 | 53.57212 | 2.57844 | 39625 ft | 441 kts | 125° |
| 2026-04-24 13:18 | 53.53947 | 2.66548 | 40075 ft | 438 kts | 124° |
| 2026-04-24 13:18 | 53.50732 | 2.75169 | 40553 ft | 434 kts | 124° |
| 2026-04-24 13:19 | 53.47552 | 2.83642 | 41009 ft | 428 kts | 124° |
| 2026-04-24 13:19 | 53.44351 | 2.92120 | 41337 ft | 426 kts | 124° |
| 2026-04-24 13:19 | 53.37928 | 3.09016 | 41347 ft | 438 kts | 124° |
| 2026-04-24 13:20 | 53.31254 | 3.26466 | 41344 ft | 452 kts | 125° |
| 2026-04-24 13:20 | 53.23598 | 3.43467 | 41340 ft | 461 kts | 143° |
| 2026-04-24 13:21 | 53.12551 | 3.54669 | 41349 ft | 472 kts | 154° |
| 2026-04-24 13:21 | 53.00867 | 3.65566 | 41340 ft | 490 kts | 149° |
| 2026-04-24 13:22 | 52.95869 | 3.73332 | 41343 ft | 501 kts | 128° |
| 2026-04-24 13:22 | 52.92130 | 3.82930 | 41332 ft | 503 kts | 123° |
| 2026-04-24 13:22 | 52.84947 | 4.02850 | 41326 ft | 504 kts | 123° |
| 2026-04-24 13:23 | 52.77639 | 4.22640 | 41319 ft | 503 kts | 124° |
| 2026-04-24 13:23 | 52.70277 | 4.42362 | 41317 ft | 503 kts | 124° |
| 2026-04-24 13:24 | 52.63323 | 4.60863 | 41313 ft | 503 kts | 124° |
| 2026-04-24 13:24 | 52.56376 | 4.79212 | 41303 ft | 502 kts | 124° |
| 2026-04-24 13:25 | 52.48143 | 4.97582 | 41296 ft | 500 kts | 131° |
| 2026-04-24 13:25 | 52.39411 | 5.15311 | 41311 ft | 499 kts | 131° |
| 2026-04-24 13:26 | 52.30835 | 5.32781 | 41319 ft | 493 kts | 129° |
| 2026-04-24 13:26 | 52.22213 | 5.50096 | 41290 ft | 482 kts | 136° |
| 2026-04-24 13:27 | 52.13861 | 5.67009 | 41138 ft | 478 kts | 132° |
| 2026-04-24 13:27 | 52.05521 | 5.83282 | 41274 ft | 466 kts | 130° |
| 2026-04-24 13:28 | 51.97443 | 5.99671 | 41247 ft | 459 kts | 132° |
| 2026-04-24 13:28 | 51.89281 | 6.15642 | 41239 ft | 452 kts | 130° |
| 2026-04-24 13:29 | 51.84347 | 6.25269 | 41252 ft | 447 kts | 134° |
| 2026-04-24 13:29 | 51.76096 | 6.41011 | 41261 ft | 464 kts | 133° |
| 2026-04-24 13:30 | 51.67700 | 6.57228 | 41250 ft | 481 kts | 133° |
| 2026-04-24 13:30 | 51.59005 | 6.73920 | 41250 ft | 495 kts | 133° |
| 2026-04-24 13:31 | 51.52992 | 6.85402 | 41252 ft | 494 kts | 133° |
| 2026-04-24 13:32 | 51.44128 | 7.02224 | 41251 ft | 494 kts | 133° |
| 2026-04-24 13:32 | 51.35198 | 7.19057 | 41247 ft | 494 kts | 133° |
| 2026-04-24 13:33 | 51.26337 | 7.35654 | 41249 ft | 493 kts | 133° |
| 2026-04-24 13:33 | 51.17338 | 7.52395 | 41215 ft | 493 kts | 133° |
| 2026-04-24 13:34 | 51.08437 | 7.68849 | 41230 ft | 493 kts | 133° |
| 2026-04-24 13:34 | 51.00921 | 7.82659 | 41206 ft | 494 kts | 134° |
| 2026-04-24 13:35 | 50.91915 | 7.99112 | 41209 ft | 493 kts | 133° |
| 2026-04-24 13:35 | 50.82074 | 8.14156 | 41210 ft | 491 kts | 140° |
| 2026-04-24 13:36 | 50.72284 | 8.28816 | 41212 ft | 492 kts | 139° |
| 2026-04-24 13:36 | 50.62470 | 8.43747 | 41131 ft | 489 kts | 134° |
| 2026-04-24 13:37 | 50.52706 | 8.57983 | 41140 ft | 478 kts | 140° |
| 2026-04-24 13:37 | 50.43248 | 8.72587 | 41104 ft | 472 kts | 141° |
| 2026-04-24 13:38 | 50.34883 | 8.85329 | 41183 ft | 464 kts | 115° |
| 2026-04-24 13:38 | 50.34176 | 8.89910 | 42902 ft | 403 kts | 84° |
| 2026-04-24 13:38 | 50.34794 | 8.93632 | 45502 ft | 329 kts | 59° |
| 2026-04-24 13:39 | 50.36109 | 8.96463 | 45574 ft | 324 kts | 39° |
| 2026-04-24 13:39 | 50.38097 | 8.98587 | 42934 ft | 379 kts | 18° |
| 2026-04-24 13:39 | 50.40823 | 8.99472 | 41459 ft | 411 kts | 355° |
| 2026-04-24 13:39 | 50.43399 | 8.98758 | 43074 ft | 337 kts | 333° |
| 2026-04-24 13:40 | 50.45281 | 8.97071 | 44746 ft | 294 kts | 317° |
| 2026-04-24 13:40 | 50.46696 | 8.94729 | 43773 ft | 313 kts | 302° |
| 2026-04-24 13:40 | 50.47766 | 8.91409 | 41427 ft | 375 kts | 284° |
| 2026-04-24 13:40 | 50.48109 | 8.87392 | 41693 ft | 350 kts | 264° |
| 2026-04-24 13:41 | 50.47639 | 8.84035 | 43687 ft | 292 kts | 248° |
| 2026-04-24 13:41 | 50.46679 | 8.81285 | 43725 ft | 293 kts | 234° |
| 2026-04-24 13:41 | 50.45182 | 8.78761 | 41664 ft | 349 kts | 220° |
| 2026-04-24 13:41 | 50.42974 | 8.76618 | 40741 ft | 377 kts | 204° |
| 2026-04-24 13:42 | 50.40669 | 8.75666 | 42661 ft | 311 kts | 189° |
| 2026-04-24 13:42 | 50.38624 | 8.75592 | 43723 ft | 290 kts | 177° |
| 2026-04-24 13:42 | 50.36543 | 8.76128 | 42356 ft | 327 kts | 167° |
| 2026-04-24 13:42 | 50.34248 | 8.77362 | 40286 ft | 395 kts | 158° |
| 2026-04-24 13:43 | 50.31865 | 8.79550 | 41030 ft | 358 kts | 145° |
| 2026-04-24 13:43 | 50.30199 | 8.81962 | 43007 ft | 304 kts | 133° |
| 2026-04-24 13:43 | 50.27859 | 8.87658 | 41032 ft | 362 kts | 115° |
| 2026-04-24 13:44 | 50.26913 | 8.91714 | 39630 ft | 410 kts | 106° |
| 2026-04-24 13:44 | 50.26429 | 8.95759 | 41284 ft | 340 kts | 96° |
| 2026-04-24 13:44 | 50.26333 | 8.99133 | 42801 ft | 299 kts | 88° |
| 2026-04-24 13:44 | 50.26492 | 9.02397 | 42231 ft | 313 kts | 81° |
| 2026-04-24 13:45 | 50.26943 | 9.06101 | 40127 ft | 378 kts | 75° |
| 2026-04-24 13:45 | 50.27771 | 9.10256 | 39349 ft | 402 kts | 68° |
| 2026-04-24 13:45 | 50.28815 | 9.13964 | 41110 ft | 332 kts | 61° |
| 2026-04-24 13:45 | 50.29887 | 9.17059 | 41346 ft | 333 kts | 57° |
| 2026-04-24 13:46 | 50.31068 | 9.22101 | 37639 ft | 436 kts | 83° |
| 2026-04-24 13:46 | 50.31008 | 9.28293 | 35700 ft | 476 kts | 100° |
| 2026-04-24 13:46 | 50.28267 | 9.37545 | 36041 ft | 476 kts | 133° |
| 2026-04-24 13:46 | 50.22930 | 9.43396 | 36540 ft | 471 kts | 158° |
| 2026-04-24 13:47 | 50.17306 | 9.48705 | 37043 ft | 480 kts | 140° |
| 2026-04-24 13:47 | 50.13251 | 9.56956 | 37567 ft | 488 kts | 120° |
| 2026-04-24 13:47 | 50.10269 | 9.66597 | 38115 ft | 491 kts | 115° |
| 2026-04-24 13:47 | 50.07526 | 9.76292 | 38674 ft | 492 kts | 115° |
| 2026-04-24 13:48 | 50.04840 | 9.86215 | 39164 ft | 493 kts | 111° |
| 2026-04-24 13:48 | 50.02518 | 9.96308 | 39635 ft | 493 kts | 110° |
| 2026-04-24 13:48 | 50.00192 | 10.06288 | 40121 ft | 492 kts | 111° |
| 2026-04-24 13:48 | 49.97791 | 10.16198 | 40611 ft | 490 kts | 111° |
| 2026-04-24 13:49 | 49.95379 | 10.25985 | 41097 ft | 488 kts | 111° |
| 2026-04-24 13:49 | 49.92925 | 10.35899 | 41165 ft | 495 kts | 111° |
| 2026-04-24 13:49 | 49.86810 | 10.55359 | 41155 ft | 500 kts | 117° |
| 2026-04-24 13:50 | 49.80486 | 10.74432 | 41148 ft | 499 kts | 117° |
| 2026-04-24 13:50 | 49.74122 | 10.93559 | 41143 ft | 499 kts | 117° |
| 2026-04-24 13:51 | 49.67795 | 11.12430 | 41152 ft | 499 kts | 117° |
| 2026-04-24 13:51 | 49.61308 | 11.31211 | 41112 ft | 493 kts | 116° |
| 2026-04-24 13:52 | 49.55185 | 11.49802 | 41007 ft | 488 kts | 123° |
| 2026-04-24 13:52 | 49.48745 | 11.68105 | 41066 ft | 480 kts | 114° |
| 2026-04-24 13:53 | 49.42656 | 11.86136 | 41102 ft | 475 kts | 118° |
| 2026-04-24 13:53 | 49.36579 | 12.03975 | 41146 ft | 467 kts | 122° |
| 2026-04-24 13:54 | 49.30166 | 12.21386 | 41118 ft | 463 kts | 114° |
| 2026-04-24 13:54 | 49.26390 | 12.32185 | 41120 ft | 462 kts | 116° |
| 2026-04-24 13:55 | 49.22006 | 12.44957 | 41139 ft | 475 kts | 117° |
| 2026-04-24 13:55 | 49.15593 | 12.63043 | 41120 ft | 494 kts | 117° |
| 2026-04-24 13:56 | 49.08911 | 12.81680 | 41118 ft | 496 kts | 117° |
| 2026-04-24 13:56 | 49.02242 | 13.00161 | 41117 ft | 495 kts | 117° |
| 2026-04-24 13:57 | 48.95599 | 13.18450 | 41111 ft | 495 kts | 117° |
| 2026-04-24 13:57 | 48.88968 | 13.36574 | 41111 ft | 495 kts | 117° |
| 2026-04-24 13:58 | 48.82263 | 13.54773 | 41111 ft | 495 kts | 117° |
| 2026-04-24 13:58 | 48.75708 | 13.72466 | 41037 ft | 486 kts | 111° |
| 2026-04-24 13:59 | 48.74942 | 13.77632 | 40570 ft | 485 kts | 91° |
| 2026-04-24 13:59 | 48.73898 | 13.87636 | 40520 ft | 486 kts | 110° |
| 2026-04-24 13:59 | 48.71896 | 13.92748 | 40358 ft | 495 kts | 133° |
| 2026-04-24 13:59 | 48.67024 | 13.99635 | 40580 ft | 496 kts | 133° |
| 2026-04-24 14:00 | 48.62611 | 14.07738 | 41059 ft | 491 kts | 122° |
| 2026-04-24 14:00 | 48.59058 | 14.16570 | 41105 ft | 496 kts | 117° |
| 2026-04-24 14:00 | 48.52403 | 14.34545 | 41097 ft | 494 kts | 117° |
| 2026-04-24 14:01 | 48.45525 | 14.52604 | 41100 ft | 494 kts | 117° |
| 2026-04-24 14:01 | 48.38622 | 14.70598 | 41092 ft | 494 kts | 117° |
| 2026-04-24 14:02 | 48.31729 | 14.88449 | 41083 ft | 494 kts | 117° |
| 2026-04-24 14:02 | 48.24807 | 15.06255 | 41079 ft | 494 kts | 117° |
| 2026-04-24 14:03 | 48.18191 | 15.23159 | 41078 ft | 494 kts | 117° |
| 2026-04-24 14:03 | 48.11119 | 15.41114 | 41071 ft | 493 kts | 118° |
| 2026-04-24 14:04 | 48.04134 | 15.58731 | 41069 ft | 493 kts | 117° |
| 2026-04-24 14:04 | 47.97160 | 15.76207 | 41064 ft | 494 kts | 117° |
| 2026-04-24 14:05 | 47.90086 | 15.93603 | 41050 ft | 490 kts | 120° |
| 2026-04-24 14:05 | 47.88597 | 15.98812 | 40922 ft | 481 kts | 98° |
| 2026-04-24 14:05 | 47.86875 | 16.06865 | 41052 ft | 492 kts | 116° |
| 2026-04-24 14:06 | 47.82658 | 16.14866 | 41039 ft | 498 kts | 128° |
| 2026-04-24 14:06 | 47.78407 | 16.22972 | 41040 ft | 495 kts | 121° |
| 2026-04-24 14:06 | 47.71155 | 16.40249 | 41033 ft | 493 kts | 117° |
| 2026-04-24 14:07 | 47.64070 | 16.57615 | 41033 ft | 493 kts | 118° |
| 2026-04-24 14:07 | 47.56850 | 16.75046 | 41030 ft | 493 kts | 118° |
| 2026-04-24 14:08 | 47.50457 | 16.92907 | 41029 ft | 490 kts | 112° |
| 2026-04-24 14:08 | 47.44284 | 17.10561 | 41031 ft | 489 kts | 114° |
| 2026-04-24 14:09 | 47.38030 | 17.23859 | 41023 ft | 496 kts | 135° |
| 2026-04-24 14:09 | 47.34205 | 17.30481 | 40907 ft | 485 kts | 108° |
| 2026-04-24 14:09 | 47.33347 | 17.35261 | 40120 ft | 482 kts | 94° |
| 2026-04-24 14:10 | 47.32757 | 17.39554 | 39736 ft | 483 kts | 99° |
| 2026-04-24 14:10 | 47.29586 | 17.51739 | 40010 ft | 485 kts | 112° |
| 2026-04-24 14:10 | 47.26403 | 17.60636 | 40512 ft | 485 kts | 114° |
| 2026-04-24 14:10 | 47.23158 | 17.69344 | 40989 ft | 484 kts | 115° |
| 2026-04-24 14:11 | 47.16727 | 17.86849 | 41028 ft | 491 kts | 114° |
| 2026-04-24 14:12 | 47.06991 | 18.13306 | 41036 ft | 490 kts | 114° |
| 2026-04-24 14:12 | 47.00767 | 18.31085 | 41035 ft | 488 kts | 111° |
| 2026-04-24 14:13 | 46.94886 | 18.48825 | 41031 ft | 488 kts | 112° |
| 2026-04-24 14:13 | 46.88829 | 18.66628 | 41027 ft | 488 kts | 112° |
| 2026-04-24 14:14 | 46.82699 | 18.84512 | 41026 ft | 488 kts | 112° |
| 2026-04-24 14:14 | 46.73536 | 19.11038 | 41021 ft | 489 kts | 113° |
| 2026-04-24 14:15 | 46.67441 | 19.28532 | 41022 ft | 489 kts | 113° |
| 2026-04-24 14:15 | 46.61206 | 19.46310 | 41024 ft | 489 kts | 113° |
| 2026-04-24 14:16 | 46.55035 | 19.63790 | 41016 ft | 489 kts | 113° |
| 2026-04-24 14:17 | 46.45653 | 19.90147 | 41009 ft | 489 kts | 114° |
| 2026-04-24 14:17 | 46.36245 | 20.16316 | 40999 ft | 489 kts | 114° |
| 2026-04-24 14:18 | 46.29875 | 20.33890 | 40994 ft | 490 kts | 114° |
| 2026-04-24 14:18 | 46.23575 | 20.51156 | 41002 ft | 490 kts | 114° |
| 2026-04-24 14:19 | 46.17185 | 20.68560 | 41000 ft | 489 kts | 114° |
| 2026-04-24 14:19 | 46.10246 | 20.85433 | 41001 ft | 492 kts | 119° |
| 2026-04-24 14:20 | 46.04122 | 20.99351 | 40999 ft | 491 kts | 118° |
| 2026-04-24 14:20 | 45.96907 | 21.16061 | 40997 ft | 491 kts | 118° |
| 2026-04-24 14:21 | 45.89688 | 21.32684 | 40994 ft | 491 kts | 118° |
| 2026-04-24 14:21 | 45.82392 | 21.49373 | 40995 ft | 491 kts | 118° |
| 2026-04-24 14:22 | 45.75143 | 21.65857 | 40998 ft | 491 kts | 119° |
| 2026-04-24 14:23 | 45.64135 | 21.90707 | 41005 ft | 492 kts | 119° |
| 2026-04-24 14:23 | 45.56778 | 22.07194 | 41008 ft | 492 kts | 119° |
| 2026-04-24 14:24 | 45.49472 | 22.23471 | 41003 ft | 492 kts | 119° |
| 2026-04-24 14:24 | 45.42012 | 22.39994 | 40993 ft | 493 kts | 119° |
| 2026-04-24 14:25 | 45.34584 | 22.56355 | 40984 ft | 493 kts | 120° |
| 2026-04-24 14:25 | 45.27141 | 22.72653 | 40971 ft | 493 kts | 120° |
| 2026-04-24 14:26 | 45.19684 | 22.88889 | 40955 ft | 493 kts | 120° |
| 2026-04-24 14:26 | 45.12076 | 23.05360 | 40941 ft | 493 kts | 120° |
| 2026-04-24 14:27 | 45.04606 | 23.21435 | 40932 ft | 494 kts | 120° |
| 2026-04-24 14:27 | 44.96995 | 23.37725 | 40919 ft | 494 kts | 120° |
| 2026-04-24 14:28 | 44.89384 | 23.53923 | 40912 ft | 495 kts | 120° |
| 2026-04-24 14:28 | 44.81751 | 23.70076 | 40910 ft | 495 kts | 120° |
| 2026-04-24 14:29 | 44.74113 | 23.86146 | 40908 ft | 496 kts | 120° |
| 2026-04-24 14:29 | 44.66497 | 24.02083 | 40907 ft | 496 kts | 121° |
| 2026-04-24 14:30 | 44.58670 | 24.18373 | 40912 ft | 497 kts | 121° |
| 2026-04-24 14:30 | 44.51024 | 24.34195 | 40912 ft | 497 kts | 121° |
| 2026-04-24 14:31 | 44.43175 | 24.50346 | 40915 ft | 498 kts | 121° |
| 2026-04-24 14:31 | 44.35392 | 24.66275 | 40916 ft | 498 kts | 121° |
| 2026-04-24 14:32 | 44.27577 | 24.82182 | 40917 ft | 498 kts | 121° |
| 2026-04-24 14:32 | 44.19620 | 24.98288 | 40904 ft | 499 kts | 122° |
| 2026-04-24 14:33 | 44.11722 | 25.14185 | 40933 ft | 498 kts | 122° |
| 2026-04-24 14:33 | 44.03831 | 25.29983 | 40919 ft | 499 kts | 122° |
| 2026-04-24 14:34 | 43.95896 | 25.45722 | 40920 ft | 500 kts | 124° |
| 2026-04-24 14:34 | 43.87130 | 25.60674 | 40925 ft | 501 kts | 127° |
| 2026-04-24 14:35 | 43.78406 | 25.75751 | 40922 ft | 501 kts | 126° |
| 2026-04-24 14:35 | 43.70279 | 25.91387 | 40918 ft | 499 kts | 121° |
| 2026-04-24 14:36 | 43.62585 | 26.07349 | 40925 ft | 500 kts | 121° |
| 2026-04-24 14:36 | 43.54840 | 26.23261 | 40922 ft | 500 kts | 121° |
| 2026-04-24 14:37 | 43.47067 | 26.39145 | 40920 ft | 500 kts | 122° |
| 2026-04-24 14:37 | 43.39265 | 26.55002 | 40920 ft | 500 kts | 122° |
| 2026-04-24 14:38 | 43.31414 | 26.70874 | 40921 ft | 500 kts | 122° |
| 2026-04-24 14:38 | 43.23561 | 26.86665 | 40918 ft | 501 kts | 122° |
| 2026-04-24 14:39 | 43.16024 | 27.02633 | 40916 ft | 499 kts | 116° |
| 2026-04-24 14:39 | 43.09343 | 27.19265 | 40916 ft | 500 kts | 117° |
| 2026-04-24 14:40 | 43.02458 | 27.35696 | 40596 ft | 496 kts | 118° |
| 2026-04-24 14:40 | 42.98785 | 27.43664 | 39406 ft | 498 kts | 126° |
| 2026-04-24 14:40 | 42.94015 | 27.50636 | 38162 ft | 499 kts | 133° |
| 2026-04-24 14:40 | 42.89072 | 27.57339 | 36696 ft | 500 kts | 132° |
| 2026-04-24 14:41 | 42.84158 | 27.63935 | 35222 ft | 501 kts | 131° |
| 2026-04-24 14:41 | 42.79167 | 27.70641 | 33669 ft | 503 kts | 129° |
| 2026-04-24 14:41 | 42.74167 | 27.77401 | 31859 ft | 505 kts | 128° |
| 2026-04-24 14:41 | 42.71103 | 27.82071 | 30659 ft | 505 kts | 125° |
| 2026-04-24 14:42 | 42.68731 | 27.85777 | 29628 ft | 509 kts | 126° |
| 2026-04-24 14:42 | 42.66378 | 27.89410 | 28677 ft | 509 kts | 126° |
| 2026-04-24 14:42 | 42.64025 | 27.93013 | 27867 ft | 506 kts | 127° |
| 2026-04-24 14:42 | 42.61697 | 27.96559 | 27136 ft | 502 kts | 127° |
| 2026-04-24 14:43 | 42.59365 | 28.00102 | 26437 ft | 498 kts | 128° |
| 2026-04-24 14:43 | 42.57067 | 28.03587 | 25771 ft | 494 kts | 128° |
| 2026-04-24 14:43 | 42.54818 | 28.06992 | 25121 ft | 490 kts | 128° |
| 2026-04-24 14:43 | 42.52544 | 28.10430 | 24465 ft | 486 kts | 129° |
| 2026-04-24 14:44 | 42.50284 | 28.13842 | 23817 ft | 482 kts | 129° |
| 2026-04-24 14:44 | 42.48058 | 28.17198 | 23081 ft | 479 kts | 129° |
| 2026-04-24 14:44 | 42.45843 | 28.20532 | 22356 ft | 474 kts | 130° |
| 2026-04-24 14:44 | 42.43655 | 28.23822 | 21667 ft | 469 kts | 130° |
| 2026-04-24 14:45 | 42.41467 | 28.27109 | 21000 ft | 464 kts | 130° |
| 2026-04-24 14:45 | 42.39313 | 28.30341 | 20310 ft | 459 kts | 130° |
| 2026-04-24 14:45 | 42.37188 | 28.33527 | 19655 ft | 455 kts | 130° |
| 2026-04-24 14:45 | 42.35072 | 28.36696 | 19018 ft | 450 kts | 131° |
| 2026-04-24 14:46 | 42.32992 | 28.39806 | 18380 ft | 446 kts | 131° |
| 2026-04-24 14:46 | 42.30807 | 28.42770 | 17645 ft | 443 kts | 139° |
| 2026-04-24 14:46 | 42.28271 | 28.45027 | 17352 ft | 429 kts | 154° |
| 2026-04-24 14:46 | 42.25529 | 28.46488 | 16644 ft | 424 kts | 162° |
| 2026-04-24 14:47 | 42.23637 | 28.47283 | 15935 ft | 428 kts | 164° |
| 2026-04-24 14:47 | 42.19844 | 28.48772 | 14857 ft | 428 kts | 164° |
| 2026-04-24 14:47 | 42.16990 | 28.49880 | 14104 ft | 425 kts | 164° |
| 2026-04-24 14:47 | 42.14155 | 28.50979 | 13313 ft | 422 kts | 164° |
| 2026-04-24 14:48 | 42.11339 | 28.52070 | 12581 ft | 416 kts | 165° |
| 2026-04-24 14:48 | 42.08605 | 28.53128 | 11884 ft | 410 kts | 165° |
| 2026-04-24 14:48 | 42.05878 | 28.54181 | 11262 ft | 403 kts | 165° |
| 2026-04-24 14:48 | 42.03238 | 28.55200 | 10993 ft | 386 kts | 165° |
| 2026-04-24 14:49 | 42.00711 | 28.56175 | 10784 ft | 369 kts | 165° |
| 2026-04-24 14:49 | 41.98309 | 28.57100 | 10645 ft | 352 kts | 165° |
| 2026-04-24 14:49 | 41.95981 | 28.57996 | 10516 ft | 336 kts | 165° |
| 2026-04-24 14:49 | 41.93783 | 28.58841 | 10383 ft | 322 kts | 165° |
| 2026-04-24 14:50 | 41.91705 | 28.59639 | 10272 ft | 309 kts | 165° |
| 2026-04-24 14:50 | 41.90321 | 28.60170 | 10157 ft | 301 kts | 165° |
| 2026-04-24 14:50 | 41.87684 | 28.61181 | 9722 ft | 296 kts | 165° |
| 2026-04-24 14:50 | 41.85735 | 28.61927 | 9347 ft | 294 kts | 165° |
| 2026-04-24 14:51 | 41.83729 | 28.62694 | 8973 ft | 293 kts | 165° |
| 2026-04-24 14:51 | 41.81797 | 28.63432 | 8637 ft | 291 kts | 165° |
| 2026-04-24 14:51 | 41.79847 | 28.64178 | 8281 ft | 290 kts | 165° |
| 2026-04-24 14:51 | 41.77916 | 28.64916 | 7923 ft | 288 kts | 165° |
| 2026-04-24 14:52 | 41.75982 | 28.65655 | 7571 ft | 287 kts | 165° |
| 2026-04-24 14:52 | 41.74071 | 28.66385 | 7219 ft | 285 kts | 165° |
| 2026-04-24 14:52 | 41.72179 | 28.67106 | 6871 ft | 284 kts | 165° |
| 2026-04-24 14:52 | 41.70281 | 28.67830 | 6521 ft | 282 kts | 165° |
| 2026-04-24 14:53 | 41.68411 | 28.68543 | 6312 ft | 274 kts | 165° |
| 2026-04-24 14:53 | 41.66621 | 28.69226 | 6207 ft | 261 kts | 165° |
| 2026-04-24 14:53 | 41.64905 | 28.69879 | 6117 ft | 250 kts | 165° |
| 2026-04-24 14:53 | 41.63288 | 28.70495 | 6018 ft | 239 kts | 165° |
| 2026-04-24 14:54 | 41.61696 | 28.71100 | 5927 ft | 235 kts | 165° |
| 2026-04-24 14:54 | 41.60107 | 28.71644 | 5815 ft | 234 kts | 168° |
| 2026-04-24 14:54 | 41.58524 | 28.72017 | 5702 ft | 234 kts | 173° |
| 2026-04-24 14:54 | 41.56889 | 28.72140 | 5396 ft | 233 kts | 182° |
| 2026-04-24 14:55 | 41.55808 | 28.72112 | 5181 ft | 233 kts | 181° |
| 2026-04-24 14:55 | 41.53670 | 28.72121 | 4950 ft | 231 kts | 179° |
| 2026-04-24 14:55 | 41.52050 | 28.72168 | 4711 ft | 230 kts | 179° |
| 2026-04-24 14:55 | 41.50479 | 28.72218 | 4423 ft | 229 kts | 179° |
| 2026-04-24 14:56 | 41.48867 | 28.72251 | 4097 ft | 230 kts | 179° |
| 2026-04-24 14:56 | 41.47271 | 28.72287 | 3777 ft | 226 kts | 179° |
| 2026-04-24 14:56 | 41.45736 | 28.72325 | 3460 ft | 215 kts | 179° |
| 2026-04-24 14:56 | 41.44276 | 28.72359 | 3175 ft | 204 kts | 180° |
| 2026-04-24 14:57 | 41.42904 | 28.72391 | 2906 ft | 194 kts | 180° |
| 2026-04-24 14:57 | 41.41589 | 28.72422 | 2659 ft | 183 kts | 180° |
| 2026-04-24 14:57 | 41.40360 | 28.72451 | 2441 ft | 172 kts | 180° |
| 2026-04-24 14:57 | 41.39169 | 28.72478 | 2199 ft | 169 kts | 180° |
| 2026-04-24 14:58 | 41.38025 | 28.72505 | 1974 ft | 159 kts | 180° |
| 2026-04-24 14:58 | 41.36964 | 28.72530 | 1761 ft | 149 kts | 180° |
| 2026-04-24 14:58 | 41.35961 | 28.72563 | 1542 ft | 140 kts | 179° |
| 2026-04-24 14:58 | 41.35013 | 28.72590 | 1378 ft | 133 kts | 180° |
| 2026-04-24 14:59 | 41.34089 | 28.72587 | 1228 ft | 133 kts | 181° |
| 2026-04-24 14:59 | 41.33148 | 28.72602 | 1088 ft | 135 kts | 180° |
| 2026-04-24 14:59 | 41.32220 | 28.72638 | 836 ft | 134 kts | 179° |
| 2026-04-24 14:59 | 41.31310 | 28.72678 | 662 ft | 130 kts | 182° |
| 2026-04-24 15:00 | 41.30412 | 28.72692 | 463 ft | 128 kts | 181° |
| 2026-04-24 15:00 | 41.29511 | 28.72703 | 359 ft | 130 kts | 182° |
| 2026-04-24 15:00 | 41.28709 | 28.72712 | 338 ft | 95 kts | 175° |
| 2026-04-24 15:00 | 41.28185 | 28.72728 | 337 ft | 57 kts | 179° |
| 2026-04-24 15:01 | 41.27892 | 28.72758 | 335 ft | 32 kts | 163° |
| 2026-04-24 15:01 | 41.27735 | 28.72863 | 336 ft | 10 kts | 148° |
| 2026-04-24 15:01 | 41.27708 | 28.72885 | 339 ft | 0 kts | 148° |
| 2026-04-24 15:02 | 41.27705 | 28.72887 | 338 ft | 0 kts | 148° |
| 2026-04-24 15:03 | 41.27704 | 28.72888 | 339 ft | 1 kts | 148° |
| 2026-04-24 15:03 | 41.27649 | 28.72933 | 335 ft | 10 kts | 151° |
| 2026-04-24 15:03 | 41.27578 | 28.72964 | 336 ft | 12 kts | 166° |
| 2026-04-24 15:03 | 41.27498 | 28.72974 | 336 ft | 5 kts | 176° |
| 2026-04-24 15:04 | 41.27497 | 28.72974 | 340 ft | 0 kts | 176° |
| 2026-04-24 15:04 | 41.27468 | 28.72976 | 336 ft | 9 kts | 176° |
| 2026-04-24 15:04 | 41.27431 | 28.72979 | 335 ft | 8 kts | 176° |
| 2026-04-24 15:04 | 41.27414 | 28.72980 | 338 ft | 0 kts | 176° |
| 2026-04-24 15:05 | 41.27410 | 28.72980 | 338 ft | 3 kts | 179° |
| 2026-04-24 15:05 | 41.27337 | 28.72983 | 336 ft | 16 kts | 179° |
| 2026-04-24 15:05 | 41.27218 | 28.72979 | 335 ft | 18 kts | 180° |
| 2026-04-24 15:05 | 41.27042 | 28.72988 | 338 ft | 19 kts | 184° |
| 2026-04-24 15:06 | 41.26954 | 28.72990 | 338 ft | 20 kts | 178° |
| 2026-04-24 15:06 | 41.26871 | 28.73003 | 335 ft | 5 kts | 140° |
| 2026-04-24 15:06 | 41.26865 | 28.73049 | 335 ft | 8 kts | 90° |
| 2026-04-24 15:06 | 41.26868 | 28.73152 | 337 ft | 13 kts | 88° |
| 2026-04-24 15:07 | 41.26870 | 28.73277 | 337 ft | 12 kts | 89° |
| 2026-04-24 15:07 | 41.26871 | 28.73393 | 336 ft | 14 kts | 89° |
| 2026-04-24 15:07 | 41.26872 | 28.73489 | 340 ft | 5 kts | 93° |
| 2026-04-24 15:07 | 41.26859 | 28.73520 | 339 ft | 2 kts | 149° |
| 2026-04-24 15:08 | 41.26841 | 28.73522 | 338 ft | 6 kts | 175° |
| 2026-04-24 15:08 | 41.26789 | 28.73528 | 339 ft | 9 kts | 179° |
| 2026-04-24 15:08 | 41.26775 | 28.73528 | 335 ft | 0 kts | 179° |